sensor_id;sensor_type;location;lat;lon;timestamp;pressure;altitude;pressure_sealevel;temperature;humidity
25420;BME280;13354;48.174;11.566;2023-07-22T00:02:00;95708.72;;;17.02;76.12
25420;BME280;13354;48.174;11.566;2023-07-22T00:04:26;95715.69;;;17.03;75.88
25420;BME280;13354;48.174;11.566;2023-07-22T00:06:52;95712.41;;;17.01;76.19
25420;BME280;13354;48.174;11.566;2023-07-22T00:09:17;95706.16;;;17.07;76.69
25420;BME280;13354;48.174;11.566;2023-07-22T00:11:43;95717.56;;;17.02;77.14
25420;BME280;13354;48.174;11.566;2023-07-22T00:14:08;95716.59;;;16.97;78.99
25420;BME280;13354;48.174;11.566;2023-07-22T00:16:34;95714.63;;;16.92;79.53
25420;BME280;13354;48.174;11.566;2023-07-22T00:19:00;95709.38;;;16.85;80.05
25420;BME280;13354;48.174;11.566;2023-07-22T00:21:25;95704.84;;;16.86;80.17
25420;BME280;13354;48.174;11.566;2023-07-22T00:23:51;95707.06;;;16.89;79.69
25420;BME280;13354;48.174;11.566;2023-07-22T00:26:16;95706.16;;;16.95;79.68
25420;BME280;13354;48.174;11.566;2023-07-22T00:28:41;95712.91;;;16.98;79.60
25420;BME280;13354;48.174;11.566;2023-07-22T00:31:08;95706.59;;;16.92;80.27
25420;BME280;13354;48.174;11.566;2023-07-22T00:33:34;95708.47;;;16.92;81.10
25420;BME280;13354;48.174;11.566;2023-07-22T00:35:59;95709.16;;;16.87;81.54
25420;BME280;13354;48.174;11.566;2023-07-22T00:38:25;95701.25;;;16.80;81.76
25420;BME280;13354;48.174;11.566;2023-07-22T00:40:50;95696.72;;;16.81;81.85
25420;BME280;13354;48.174;11.566;2023-07-22T00:43:15;95702.06;;;16.93;80.48
25420;BME280;13354;48.174;11.566;2023-07-22T00:45:41;95696.59;;;16.99;79.68
25420;BME280;13354;48.174;11.566;2023-07-22T00:48:07;95694.19;;;16.98;79.58
25420;BME280;13354;48.174;11.566;2023-07-22T00:50:33;95682.53;;;17.04;79.25
25420;BME280;13354;48.174;11.566;2023-07-22T00:53:00;95693.59;;;16.96;80.00
25420;BME280;13354;48.174;11.566;2023-07-22T00:55:25;95687.53;;;16.88;80.49
25420;BME280;13354;48.174;11.566;2023-07-22T00:57:51;95685.09;;;16.87;80.17
25420;BME280;13354;48.174;11.566;2023-07-22T01:00:17;95670.56;;;16.83;80.57
25420;BME280;13354;48.174;11.566;2023-07-22T01:02:43;95677.88;;;16.76;80.87
25420;BME280;13354;48.174;11.566;2023-07-22T01:05:10;95679.03;;;16.80;81.46
25420;BME280;13354;48.174;11.566;2023-07-22T01:07:36;95674.38;;;16.75;81.08
25420;BME280;13354;48.174;11.566;2023-07-22T01:10:04;95669.63;;;16.89;80.48
25420;BME280;13354;48.174;11.566;2023-07-22T01:12:30;95664.88;;;16.79;80.19
25420;BME280;13354;48.174;11.566;2023-07-22T01:14:56;95662.75;;;16.81;80.55
25420;BME280;13354;48.174;11.566;2023-07-22T01:17:22;95670.31;;;16.84;80.43
25420;BME280;13354;48.174;11.566;2023-07-22T01:19:47;95665.09;;;16.89;80.30
25420;BME280;13354;48.174;11.566;2023-07-22T01:22:13;95665.78;;;16.85;80.69
25420;BME280;13354;48.174;11.566;2023-07-22T01:24:39;95669.47;;;16.72;81.92
25420;BME280;13354;48.174;11.566;2023-07-22T01:27:08;95671.66;;;16.63;82.73
25420;BME280;13354;48.174;11.566;2023-07-22T01:29:35;95665.94;;;16.60;82.59
25420;BME280;13354;48.174;11.566;2023-07-22T01:32:01;95667.44;;;16.56;82.95
25420;BME280;13354;48.174;11.566;2023-07-22T01:34:26;95670.13;;;16.56;82.96
25420;BME280;13354;48.174;11.566;2023-07-22T01:36:52;95676.75;;;16.53;82.96
25420;BME280;13354;48.174;11.566;2023-07-22T01:39:19;95675.94;;;16.53;83.16
25420;BME280;13354;48.174;11.566;2023-07-22T01:41:45;95677.22;;;16.50;83.76
25420;BME280;13354;48.174;11.566;2023-07-22T01:44:10;95674.28;;;16.40;84.65
25420;BME280;13354;48.174;11.566;2023-07-22T01:46:38;95679.88;;;16.50;84.88
25420;BME280;13354;48.174;11.566;2023-07-22T01:49:10;95680.69;;;16.39;84.65
25420;BME280;13354;48.174;11.566;2023-07-22T01:51:37;95678.97;;;16.56;83.36
25420;BME280;13354;48.174;11.566;2023-07-22T01:54:04;95691.06;;;16.71;80.81
25420;BME280;13354;48.174;11.566;2023-07-22T01:56:29;95696.81;;;16.74;80.15
25420;BME280;13354;48.174;11.566;2023-07-22T01:58:54;95679.97;;;16.74;80.06
25420;BME280;13354;48.174;11.566;2023-07-22T02:01:20;95686.88;;;16.63;80.63
25420;BME280;13354;48.174;11.566;2023-07-22T02:03:45;95692.63;;;16.78;80.42
25420;BME280;13354;48.174;11.566;2023-07-22T02:06:12;95684.34;;;16.68;80.44
25420;BME280;13354;48.174;11.566;2023-07-22T02:08:37;95678.44;;;16.78;80.31
25420;BME280;13354;48.174;11.566;2023-07-22T02:11:04;95683.34;;;16.81;80.29
25420;BME280;13354;48.174;11.566;2023-07-22T02:13:30;95679.97;;;16.97;79.73
25420;BME280;13354;48.174;11.566;2023-07-22T02:15:56;95689.28;;;16.95;79.87
25420;BME280;13354;48.174;11.566;2023-07-22T02:18:22;95696.72;;;16.81;80.57
25420;BME280;13354;48.174;11.566;2023-07-22T02:20:47;95692.66;;;17.02;80.05
25420;BME280;13354;48.174;11.566;2023-07-22T02:23:13;95687.78;;;16.99;79.77
25420;BME280;13354;48.174;11.566;2023-07-22T02:25:39;95685.47;;;17.02;79.79
25420;BME280;13354;48.174;11.566;2023-07-22T02:28:04;95695.81;;;16.99;79.75
25420;BME280;13354;48.174;11.566;2023-07-22T02:30:29;95690.22;;;17.12;79.44
25420;BME280;13354;48.174;11.566;2023-07-22T02:32:55;95680.22;;;17.07;79.34
25420;BME280;13354;48.174;11.566;2023-07-22T02:35:21;95691.72;;;17.08;79.57
25420;BME280;13354;48.174;11.566;2023-07-22T02:37:46;95691.50;;;17.09;79.91
25420;BME280;13354;48.174;11.566;2023-07-22T02:40:12;95680.31;;;16.89;81.28
25420;BME280;13354;48.174;11.566;2023-07-22T02:42:37;95685.41;;;16.79;82.58
25420;BME280;13354;48.174;11.566;2023-07-22T02:45:03;95691.31;;;16.69;83.52
25420;BME280;13354;48.174;11.566;2023-07-22T02:47:38;95687.97;;;16.74;83.92
25420;BME280;13354;48.174;11.566;2023-07-22T02:50:06;95679.00;;;16.68;84.34
25420;BME280;13354;48.174;11.566;2023-07-22T02:52:32;95690.91;;;16.84;83.55
25420;BME280;13354;48.174;11.566;2023-07-22T02:55:10;95696.50;;;16.94;82.87
25420;BME280;13354;48.174;11.566;2023-07-22T02:57:37;95699.63;;;16.91;83.59
25420;BME280;13354;48.174;11.566;2023-07-22T03:00:04;95699.19;;;16.94;83.63
25420;BME280;13354;48.174;11.566;2023-07-22T03:02:35;95702.66;;;16.95;83.88
25420;BME280;13354;48.174;11.566;2023-07-22T03:05:01;95705.34;;;16.95;84.16
25420;BME280;13354;48.174;11.566;2023-07-22T03:07:28;95698.44;;;16.75;85.27
25420;BME280;13354;48.174;11.566;2023-07-22T03:09:53;95705.13;;;16.66;85.92
25420;BME280;13354;48.174;11.566;2023-07-22T03:12:18;95699.53;;;16.67;86.57
25420;BME280;13354;48.174;11.566;2023-07-22T03:14:44;95708.59;;;16.55;87.87
25420;BME280;13354;48.174;11.566;2023-07-22T03:17:09;95698.47;;;16.57;88.08
25420;BME280;13354;48.174;11.566;2023-07-22T03:19:34;95699.44;;;16.62;88.48
25420;BME280;13354;48.174;11.566;2023-07-22T03:22:00;95701.63;;;16.54;89.32
25420;BME280;13354;48.174;11.566;2023-07-22T03:24:26;95703.34;;;16.48;89.81
25420;BME280;13354;48.174;11.566;2023-07-22T03:26:51;95689.78;;;16.61;89.88
25420;BME280;13354;48.174;11.566;2023-07-22T03:29:16;95700.66;;;16.78;88.48
25420;BME280;13354;48.174;11.566;2023-07-22T03:31:42;95698.53;;;16.69;88.99
25420;BME280;13354;48.174;11.566;2023-07-22T03:34:07;95693.19;;;16.69;89.06
25420;BME280;13354;48.174;11.566;2023-07-22T03:36:32;95694.91;;;16.63;89.39
25420;BME280;13354;48.174;11.566;2023-07-22T03:39:01;95702.47;;;16.66;89.36
25420;BME280;13354;48.174;11.566;2023-07-22T03:41:26;95700.03;;;16.64;89.77
25420;BME280;13354;48.174;11.566;2023-07-22T03:43:52;95698.84;;;16.60;89.86
25420;BME280;13354;48.174;11.566;2023-07-22T03:46:17;95711.09;;;16.68;89.31
25420;BME280;13354;48.174;11.566;2023-07-22T03:48:42;95711.88;;;16.69;89.70
25420;BME280;13354;48.174;11.566;2023-07-22T03:51:08;95716.34;;;16.75;89.22
25420;BME280;13354;48.174;11.566;2023-07-22T03:53:33;95717.00;;;16.70;89.31
25420;BME280;13354;48.174;11.566;2023-07-22T03:55:58;95722.31;;;16.58;89.42
25420;BME280;13354;48.174;11.566;2023-07-22T03:58:23;95718.50;;;16.66;89.26
25420;BME280;13354;48.174;11.566;2023-07-22T04:00:49;95718.03;;;16.69;89.40
25420;BME280;13354;48.174;11.566;2023-07-22T04:03:15;95721.78;;;16.68;89.29
25420;BME280;13354;48.174;11.566;2023-07-22T04:05:40;95723.56;;;16.56;89.88
25420;BME280;13354;48.174;11.566;2023-07-22T04:08:05;95722.13;;;16.41;90.84
25420;BME280;13354;48.174;11.566;2023-07-22T04:10:31;95720.88;;;16.44;91.62
25420;BME280;13354;48.174;11.566;2023-07-22T04:12:56;95722.06;;;16.48;91.08
25420;BME280;13354;48.174;11.566;2023-07-22T04:15:22;95731.38;;;16.57;90.66
25420;BME280;13354;48.174;11.566;2023-07-22T04:17:47;95734.25;;;16.44;90.98
25420;BME280;13354;48.174;11.566;2023-07-22T04:20:13;95732.75;;;16.48;91.74
25420;BME280;13354;48.174;11.566;2023-07-22T04:22:38;95740.06;;;16.53;91.09
25420;BME280;13354;48.174;11.566;2023-07-22T04:25:04;95734.16;;;16.51;90.84
25420;BME280;13354;48.174;11.566;2023-07-22T04:27:29;95742.88;;;16.58;90.64
25420;BME280;13354;48.174;11.566;2023-07-22T04:29:55;95740.53;;;16.50;90.31
25420;BME280;13354;48.174;11.566;2023-07-22T04:32:20;95741.56;;;16.49;91.10
25420;BME280;13354;48.174;11.566;2023-07-22T04:34:45;95745.59;;;16.70;90.15
25420;BME280;13354;48.174;11.566;2023-07-22T04:37:11;95744.38;;;16.54;90.38
25420;BME280;13354;48.174;11.566;2023-07-22T04:39:37;95743.56;;;16.53;90.26
25420;BME280;13354;48.174;11.566;2023-07-22T04:42:02;95735.69;;;16.58;89.78
25420;BME280;13354;48.174;11.566;2023-07-22T04:44:27;95725.25;;;16.69;89.08
25420;BME280;13354;48.174;11.566;2023-07-22T04:46:53;95727.13;;;16.68;88.56
25420;BME280;13354;48.174;11.566;2023-07-22T04:49:18;95722.94;;;16.72;87.47
25420;BME280;13354;48.174;11.566;2023-07-22T04:51:47;95730.38;;;16.70;87.32
25420;BME280;13354;48.174;11.566;2023-07-22T04:54:13;95733.22;;;16.87;86.71
25420;BME280;13354;48.174;11.566;2023-07-22T04:56:38;95725.69;;;16.96;85.75
25420;BME280;13354;48.174;11.566;2023-07-22T04:59:04;95725.22;;;16.99;84.84
25420;BME280;13354;48.174;11.566;2023-07-22T05:01:29;95730.44;;;16.94;85.53
25420;BME280;13354;48.174;11.566;2023-07-22T05:03:54;95740.47;;;17.10;84.42
25420;BME280;13354;48.174;11.566;2023-07-22T05:06:20;95735.56;;;17.07;83.42
25420;BME280;13354;48.174;11.566;2023-07-22T05:08:46;95736.28;;;17.02;84.46
25420;BME280;13354;48.174;11.566;2023-07-22T05:11:11;95733.34;;;17.04;84.53
25420;BME280;13354;48.174;11.566;2023-07-22T05:13:36;95740.25;;;17.23;83.30
25420;BME280;13354;48.174;11.566;2023-07-22T05:16:01;95742.22;;;17.28;80.95
25420;BME280;13354;48.174;11.566;2023-07-22T05:18:27;95740.00;;;17.25;81.45
25420;BME280;13354;48.174;11.566;2023-07-22T05:20:52;95749.75;;;17.19;82.11
25420;BME280;13354;48.174;11.566;2023-07-22T05:23:17;95755.25;;;17.12;81.69
25420;BME280;13354;48.174;11.566;2023-07-22T05:25:43;95755.34;;;17.29;81.25
25420;BME280;13354;48.174;11.566;2023-07-22T05:28:08;95749.19;;;17.52;79.30
25420;BME280;13354;48.174;11.566;2023-07-22T05:30:33;95757.94;;;17.36;79.80
25420;BME280;13354;48.174;11.566;2023-07-22T05:32:58;95748.38;;;17.28;79.99
25420;BME280;13354;48.174;11.566;2023-07-22T05:35:24;95753.63;;;17.58;78.79
25420;BME280;13354;48.174;11.566;2023-07-22T05:37:49;95748.84;;;17.49;79.19
25420;BME280;13354;48.174;11.566;2023-07-22T05:40:15;95745.72;;;17.40;79.41
25420;BME280;13354;48.174;11.566;2023-07-22T05:42:40;95738.97;;;17.49;78.80
25420;BME280;13354;48.174;11.566;2023-07-22T05:45:06;95751.06;;;17.40;79.42
25420;BME280;13354;48.174;11.566;2023-07-22T05:47:32;95746.19;;;17.60;77.22
25420;BME280;13354;48.174;11.566;2023-07-22T05:49:58;95740.59;;;17.50;77.66
25420;BME280;13354;48.174;11.566;2023-07-22T05:52:23;95745.03;;;17.56;77.48
25420;BME280;13354;48.174;11.566;2023-07-22T05:54:48;95743.03;;;17.52;77.70
25420;BME280;13354;48.174;11.566;2023-07-22T05:57:15;95741.50;;;17.56;77.17
25420;BME280;13354;48.174;11.566;2023-07-22T05:59:40;95742.91;;;17.47;77.07
25420;BME280;13354;48.174;11.566;2023-07-22T06:02:07;95740.00;;;17.72;76.40
25420;BME280;13354;48.174;11.566;2023-07-22T06:04:32;95756.97;;;17.89;74.03
25420;BME280;13354;48.174;11.566;2023-07-22T06:06:58;95754.31;;;17.77;74.77
25420;BME280;13354;48.174;11.566;2023-07-22T06:09:23;95759.31;;;17.85;75.13
25420;BME280;13354;48.174;11.566;2023-07-22T06:11:49;95763.91;;;18.14;73.65
25420;BME280;13354;48.174;11.566;2023-07-22T06:14:14;95753.59;;;18.05;72.29
25420;BME280;13354;48.174;11.566;2023-07-22T06:16:39;95762.56;;;17.99;73.24
25420;BME280;13354;48.174;11.566;2023-07-22T06:19:05;95765.31;;;18.16;71.15
25420;BME280;13354;48.174;11.566;2023-07-22T06:21:30;95762.63;;;18.16;69.00
25420;BME280;13354;48.174;11.566;2023-07-22T06:23:55;95768.09;;;18.21;70.09
25420;BME280;13354;48.174;11.566;2023-07-22T06:26:21;95776.41;;;18.08;70.93
25420;BME280;13354;48.174;11.566;2023-07-22T06:28:47;95773.19;;;18.34;70.62
25420;BME280;13354;48.174;11.566;2023-07-22T06:31:12;95779.72;;;18.55;68.95
25420;BME280;13354;48.174;11.566;2023-07-22T06:33:37;95783.59;;;18.59;68.15
25420;BME280;13354;48.174;11.566;2023-07-22T06:36:03;95781.94;;;18.58;67.05
25420;BME280;13354;48.174;11.566;2023-07-22T06:38:28;95779.50;;;18.57;67.26
25420;BME280;13354;48.174;11.566;2023-07-22T06:40:54;95784.53;;;18.53;66.50
25420;BME280;13354;48.174;11.566;2023-07-22T06:43:19;95783.81;;;18.58;67.72
25420;BME280;13354;48.174;11.566;2023-07-22T06:45:44;95782.53;;;18.61;68.22
25420;BME280;13354;48.174;11.566;2023-07-22T06:48:10;95787.25;;;18.82;66.80
25420;BME280;13354;48.174;11.566;2023-07-22T06:50:35;95782.38;;;18.96;65.51
25420;BME280;13354;48.174;11.566;2023-07-22T06:53:00;95784.47;;;18.77;66.27
25420;BME280;13354;48.174;11.566;2023-07-22T06:55:26;95785.28;;;18.66;65.75
25420;BME280;13354;48.174;11.566;2023-07-22T06:57:51;95788.47;;;18.91;65.65
25420;BME280;13354;48.174;11.566;2023-07-22T07:00:16;95788.44;;;19.20;65.12
25420;BME280;13354;48.174;11.566;2023-07-22T07:02:41;95786.41;;;19.27;64.27
25420;BME280;13354;48.174;11.566;2023-07-22T07:05:07;95788.56;;;19.47;62.77
25420;BME280;13354;48.174;11.566;2023-07-22T07:07:32;95784.91;;;19.36;61.97
25420;BME280;13354;48.174;11.566;2023-07-22T07:09:58;95786.16;;;19.62;61.08
25420;BME280;13354;48.174;11.566;2023-07-22T07:12:23;95777.72;;;19.92;60.70
25420;BME280;13354;48.174;11.566;2023-07-22T07:14:53;95785.75;;;20.31;60.33
25420;BME280;13354;48.174;11.566;2023-07-22T07:17:18;95784.75;;;20.86;58.88
25420;BME280;13354;48.174;11.566;2023-07-22T07:19:43;95786.31;;;21.36;55.67
25420;BME280;13354;48.174;11.566;2023-07-22T07:22:09;95786.69;;;21.87;53.90
25420;BME280;13354;48.174;11.566;2023-07-22T07:24:34;95789.66;;;21.91;53.38
25420;BME280;13354;48.174;11.566;2023-07-22T07:26:59;95783.13;;;22.24;53.56
25420;BME280;13354;48.174;11.566;2023-07-22T07:29:24;95788.97;;;22.11;52.69
25420;BME280;13354;48.174;11.566;2023-07-22T07:31:50;95789.16;;;22.47;52.89
25420;BME280;13354;48.174;11.566;2023-07-22T07:34:15;95780.84;;;22.63;51.74
25420;BME280;13354;48.174;11.566;2023-07-22T07:36:41;95776.84;;;22.76;50.60
25420;BME280;13354;48.174;11.566;2023-07-22T07:39:06;95787.16;;;22.95;49.33
25420;BME280;13354;48.174;11.566;2023-07-22T07:41:32;95792.22;;;22.81;50.35
25420;BME280;13354;48.174;11.566;2023-07-22T07:43:58;95794.06;;;22.70;49.90
25420;BME280;13354;48.174;11.566;2023-07-22T07:46:26;95796.84;;;22.90;49.83
25420;BME280;13354;48.174;11.566;2023-07-22T07:48:53;95794.22;;;23.31;50.26
25420;BME280;13354;48.174;11.566;2023-07-22T07:51:20;95793.91;;;23.63;48.34
25420;BME280;13354;48.174;11.566;2023-07-22T07:53:46;95793.91;;;23.89;48.55
25420;BME280;13354;48.174;11.566;2023-07-22T07:56:12;95796.53;;;24.25;46.88
25420;BME280;13354;48.174;11.566;2023-07-22T07:58:38;95794.03;;;24.54;46.16
25420;BME280;13354;48.174;11.566;2023-07-22T08:01:04;95796.19;;;24.52;43.96
25420;BME280;13354;48.174;11.566;2023-07-22T08:03:29;95797.88;;;24.97;43.58
25420;BME280;13354;48.174;11.566;2023-07-22T08:05:55;95794.03;;;25.03;44.06
25420;BME280;13354;48.174;11.566;2023-07-22T08:08:21;95787.78;;;25.03;43.35
25420;BME280;13354;48.174;11.566;2023-07-22T08:10:46;95793.00;;;25.39;43.77
25420;BME280;13354;48.174;11.566;2023-07-22T08:13:13;95796.13;;;25.56;42.76
25420;BME280;13354;48.174;11.566;2023-07-22T08:15:38;95792.81;;;25.93;42.20
25420;BME280;13354;48.174;11.566;2023-07-22T08:18:03;95796.34;;;25.60;41.79
25420;BME280;13354;48.174;11.566;2023-07-22T08:20:29;95797.53;;;25.09;42.77
25420;BME280;13354;48.174;11.566;2023-07-22T08:22:55;95797.38;;;25.29;41.96
25420;BME280;13354;48.174;11.566;2023-07-22T08:25:21;95799.84;;;25.31;42.45
25420;BME280;13354;48.174;11.566;2023-07-22T08:27:46;95795.25;;;25.61;40.69
25420;BME280;13354;48.174;11.566;2023-07-22T08:30:11;95794.59;;;25.45;41.14
25420;BME280;13354;48.174;11.566;2023-07-22T08:32:36;95801.31;;;25.47;41.86
25420;BME280;13354;48.174;11.566;2023-07-22T08:35:02;95804.69;;;25.68;41.04
25420;BME280;13354;48.174;11.566;2023-07-22T08:37:28;95802.91;;;25.53;40.74
25420;BME280;13354;48.174;11.566;2023-07-22T08:39:53;95802.00;;;25.29;41.34
25420;BME280;13354;48.174;11.566;2023-07-22T08:42:18;95791.28;;;25.48;40.71
25420;BME280;13354;48.174;11.566;2023-07-22T08:44:48;95792.88;;;25.54;40.63
25420;BME280;13354;48.174;11.566;2023-07-22T08:47:15;95790.84;;;24.91;41.10
25420;BME280;13354;48.174;11.566;2023-07-22T08:49:46;95783.72;;;25.11;41.24
25420;BME280;13354;48.174;11.566;2023-07-22T08:52:16;95786.91;;;25.23;41.38
25420;BME280;13354;48.174;11.566;2023-07-22T08:54:42;95786.44;;;25.05;40.44
25420;BME280;13354;48.174;11.566;2023-07-22T08:57:09;95783.03;;;25.29;38.47
25420;BME280;13354;48.174;11.566;2023-07-22T08:59:36;95787.28;;;24.46;40.03
25420;BME280;13354;48.174;11.566;2023-07-22T09:02:02;95800.66;;;24.07;40.47
25420;BME280;13354;48.174;11.566;2023-07-22T09:04:27;95786.78;;;24.29;40.55
25420;BME280;13354;48.174;11.566;2023-07-22T09:06:54;95782.59;;;24.67;39.90
25420;BME280;13354;48.174;11.566;2023-07-22T09:09:21;95794.69;;;25.29;39.49
25420;BME280;13354;48.174;11.566;2023-07-22T09:11:48;95781.56;;;24.58;39.12
25420;BME280;13354;48.174;11.566;2023-07-22T09:14:15;95775.34;;;25.02;39.55
25420;BME280;13354;48.174;11.566;2023-07-22T09:16:43;95776.06;;;25.18;38.55
25420;BME280;13354;48.174;11.566;2023-07-22T09:19:09;95772.00;;;25.54;38.36
25420;BME280;13354;48.174;11.566;2023-07-22T09:21:34;95778.44;;;26.17;36.89
25420;BME280;13354;48.174;11.566;2023-07-22T09:24:01;95766.91;;;26.30;34.88
25420;BME280;13354;48.174;11.566;2023-07-22T09:26:26;95778.22;;;26.37;34.54
25420;BME280;13354;48.174;11.566;2023-07-22T09:28:53;95773.88;;;26.36;34.80
25420;BME280;13354;48.174;11.566;2023-07-22T09:31:26;95774.81;;;26.26;34.95
25420;BME280;13354;48.174;11.566;2023-07-22T09:33:53;95767.44;;;26.56;33.39
25420;BME280;13354;48.174;11.566;2023-07-22T09:36:20;95774.25;;;26.30;34.02
25420;BME280;13354;48.174;11.566;2023-07-22T09:38:45;95765.97;;;26.40;34.29
25420;BME280;13354;48.174;11.566;2023-07-22T09:41:27;95766.22;;;26.19;35.06
25420;BME280;13354;48.174;11.566;2023-07-22T09:43:52;95768.28;;;26.27;35.75
25420;BME280;13354;48.174;11.566;2023-07-22T09:46:18;95770.28;;;26.22;35.64
25420;BME280;13354;48.174;11.566;2023-07-22T09:48:44;95767.53;;;25.69;37.32
25420;BME280;13354;48.174;11.566;2023-07-22T09:51:15;95769.44;;;25.97;36.17
25420;BME280;13354;48.174;11.566;2023-07-22T09:53:45;95761.72;;;25.17;37.09
25420;BME280;13354;48.174;11.566;2023-07-22T09:56:11;95767.50;;;25.40;36.74
25420;BME280;13354;48.174;11.566;2023-07-22T09:58:37;95766.38;;;25.46;37.70
25420;BME280;13354;48.174;11.566;2023-07-22T10:01:04;95767.09;;;25.57;38.31
25420;BME280;13354;48.174;11.566;2023-07-22T10:03:31;95759.88;;;25.76;36.41
25420;BME280;13354;48.174;11.566;2023-07-22T10:05:59;95753.69;;;25.99;36.78
25420;BME280;13354;48.174;11.566;2023-07-22T10:08:26;95753.97;;;25.98;35.97
25420;BME280;13354;48.174;11.566;2023-07-22T10:10:54;95758.16;;;26.14;34.75
25420;BME280;13354;48.174;11.566;2023-07-22T10:13:21;95750.41;;;26.26;34.49
25420;BME280;13354;48.174;11.566;2023-07-22T10:15:47;95754.16;;;26.31;35.37
25420;BME280;13354;48.174;11.566;2023-07-22T10:18:13;95753.28;;;25.87;34.81
25420;BME280;13354;48.174;11.566;2023-07-22T10:20:38;95754.13;;;25.53;36.14
25420;BME280;13354;48.174;11.566;2023-07-22T10:23:06;95754.22;;;26.01;35.36
25420;BME280;13354;48.174;11.566;2023-07-22T10:25:33;95747.28;;;25.90;36.59
25420;BME280;13354;48.174;11.566;2023-07-22T10:27:58;95750.09;;;26.28;36.81
25420;BME280;13354;48.174;11.566;2023-07-22T10:30:24;95747.19;;;26.48;35.12
25420;BME280;13354;48.174;11.566;2023-07-22T10:32:52;95751.69;;;26.77;34.75
25420;BME280;13354;48.174;11.566;2023-07-22T10:35:37;95733.75;;;26.57;34.47
25420;BME280;13354;48.174;11.566;2023-07-22T10:38:13;95739.94;;;26.63;34.91
25420;BME280;13354;48.174;11.566;2023-07-22T10:40:53;95744.25;;;26.83;34.18
25420;BME280;13354;48.174;11.566;2023-07-22T10:43:24;95748.44;;;26.56;34.44
25420;BME280;13354;48.174;11.566;2023-07-22T10:45:55;95735.84;;;26.41;34.51
25420;BME280;13354;48.174;11.566;2023-07-22T10:48:25;95740.78;;;26.15;34.95
25420;BME280;13354;48.174;11.566;2023-07-22T10:50:52;95745.13;;;26.59;34.86
25420;BME280;13354;48.174;11.566;2023-07-22T10:56:15;95730.44;;;27.17;34.10
25420;BME280;13354;48.174;11.566;2023-07-22T11:06:40;95715.91;;;26.51;34.92
25420;BME280;13354;48.174;11.566;2023-07-22T11:12:13;95702.81;;;26.77;35.81
25420;BME280;13354;48.174;11.566;2023-07-22T11:14:49;95707.22;;;26.30;35.82
25420;BME280;13354;48.174;11.566;2023-07-22T11:17:15;95704.28;;;26.02;36.01
25420;BME280;13354;48.174;11.566;2023-07-22T11:19:40;95690.97;;;25.82;36.41
25420;BME280;13354;48.174;11.566;2023-07-22T11:22:06;95704.28;;;25.73;35.87
25420;BME280;13354;48.174;11.566;2023-07-22T11:24:33;95698.56;;;25.80;35.83
25420;BME280;13354;48.174;11.566;2023-07-22T11:27:04;95690.16;;;25.82;35.85
25420;BME280;13354;48.174;11.566;2023-07-22T11:29:30;95689.28;;;25.57;36.08
25420;BME280;13354;48.174;11.566;2023-07-22T11:31:55;95688.84;;;25.74;36.90
25420;BME280;13354;48.174;11.566;2023-07-22T11:34:23;95672.72;;;25.88;37.45
25420;BME280;13354;48.174;11.566;2023-07-22T11:36:50;95686.31;;;26.07;36.25
25420;BME280;13354;48.174;11.566;2023-07-22T11:39:20;95675.72;;;25.86;35.50
25420;BME280;13354;48.174;11.566;2023-07-22T11:41:47;95679.84;;;26.02;35.30
25420;BME280;13354;48.174;11.566;2023-07-22T11:44:14;95669.31;;;26.01;35.01
25420;BME280;13354;48.174;11.566;2023-07-22T11:46:58;95650.53;;;25.57;35.05
25420;BME280;13354;48.174;11.566;2023-07-22T11:52:00;95662.13;;;26.10;35.66
25420;BME280;13354;48.174;11.566;2023-07-22T11:54:27;95657.78;;;26.33;36.96
25420;BME280;13354;48.174;11.566;2023-07-22T11:56:54;95660.72;;;26.74;34.52
25420;BME280;13354;48.174;11.566;2023-07-22T11:59:33;95658.09;;;26.88;34.08
25420;BME280;13354;48.174;11.566;2023-07-22T12:02:00;95654.25;;;26.89;33.07
25420;BME280;13354;48.174;11.566;2023-07-22T12:04:25;95653.25;;;26.66;34.11
25420;BME280;13354;48.174;11.566;2023-07-22T12:06:51;95652.66;;;26.50;34.52
25420;BME280;13354;48.174;11.566;2023-07-22T12:09:16;95642.91;;;26.49;34.15
25420;BME280;13354;48.174;11.566;2023-07-22T12:11:41;95639.38;;;26.49;34.68
25420;BME280;13354;48.174;11.566;2023-07-22T12:14:07;95652.59;;;26.74;33.65
25420;BME280;13354;48.174;11.566;2023-07-22T12:16:35;95648.88;;;26.84;33.78
25420;BME280;13354;48.174;11.566;2023-07-22T12:19:02;95642.19;;;26.63;34.21
25420;BME280;13354;48.174;11.566;2023-07-22T12:21:27;95641.72;;;26.74;33.68
25420;BME280;13354;48.174;11.566;2023-07-22T12:23:53;95631.88;;;26.79;32.83
25420;BME280;13354;48.174;11.566;2023-07-22T12:26:18;95632.94;;;26.96;32.31
25420;BME280;13354;48.174;11.566;2023-07-22T12:28:44;95637.97;;;26.89;32.09
25420;BME280;13354;48.174;11.566;2023-07-22T12:31:09;95633.00;;;26.59;33.60
25420;BME280;13354;48.174;11.566;2023-07-22T12:33:34;95633.75;;;26.21;33.39
25420;BME280;13354;48.174;11.566;2023-07-22T12:36:00;95634.94;;;25.96;33.88
25420;BME280;13354;48.174;11.566;2023-07-22T12:38:25;95623.88;;;26.12;34.31
25420;BME280;13354;48.174;11.566;2023-07-22T12:40:50;95621.81;;;26.22;34.82
25420;BME280;13354;48.174;11.566;2023-07-22T12:43:16;95622.31;;;26.43;35.04
25420;BME280;13354;48.174;11.566;2023-07-22T12:45:41;95621.84;;;26.60;34.08
25420;BME280;13354;48.174;11.566;2023-07-22T12:48:06;95618.66;;;26.72;34.81
25420;BME280;13354;48.174;11.566;2023-07-22T12:50:32;95622.03;;;26.83;33.47
25420;BME280;13354;48.174;11.566;2023-07-22T12:52:58;95619.47;;;26.72;32.49
25420;BME280;13354;48.174;11.566;2023-07-22T12:55:24;95628.06;;;26.61;33.14
25420;BME280;13354;48.174;11.566;2023-07-22T12:57:49;95618.38;;;26.73;33.24
25420;BME280;13354;48.174;11.566;2023-07-22T13:00:15;95613.19;;;26.91;33.70
25420;BME280;13354;48.174;11.566;2023-07-22T13:02:40;95615.44;;;27.03;33.38